| time (UTC) | temp F | wind direction | speed MPH | gust MPH | rain 1hr in | rain 24hr in | rain mn in | humidity % | barometer mb |
| 20260510051340 | 61 | 0.0 | 0.0 | 0.00 | 0.00 | 0.00 | 91 | -0.1 | |
| 20260510050826 | 61 | 0.0 | 0.0 | 0.00 | 0.00 | 0.00 | 91 | -0.1 | |
| 20260510050332 | 61 | 0.0 | 0.0 | 0.00 | 0.00 | 0.00 | 91 | -0.1 | |
| 20260510045334 | 61 | 0.0 | 0.0 | 0.00 | 0.00 | 0.00 | 91 | -0.1 | |
| 20260510042833 | 61 | 0.0 | 0.0 | 0.00 | 0.00 | 0.00 | 90 | -0.1 | |
| 20260510042340 | 61 | 0.0 | 0.0 | 0.00 | 0.00 | 0.00 | 90 | -0.1 | |
| 20260510041839 | 61 | 0.0 | 0.0 | 0.00 | 0.00 | 0.00 | 90 | -0.1 | |
| 20260510041344 | 61 | 0.0 | 0.0 | 0.00 | 0.00 | 0.00 | 90 | -0.1 | |
| 20260510040830 | 61 | 0.0 | 0.0 | 0.00 | 0.00 | 0.00 | 90 | -0.1 | |
| 20260510040334 | 61 | 0.0 | 0.0 | 0.00 | 0.00 | 0.00 | 90 | -0.1 | |
| 20260510035840 | 61 | 0.0 | 0.0 | 0.00 | 0.00 | 0.00 | 90 | -0.1 | |
| 20260510034324 | 61 | 0.0 | 0.0 | 0.00 | 0.00 | 0.00 | 90 | -0.1 | |
| 20260510033828 | 61 | 0.0 | 0.0 | 0.00 | 0.00 | 0.00 | 90 | -0.1 | |
| 20260510032825 | 61 | 0.0 | 0.0 | 0.00 | 0.00 | 0.00 | 90 | -0.1 | |
| 20260510031827 | 61 | 0.0 | 0.0 | 0.00 | 0.00 | 0.00 | 89 | -0.1 | |
| 20260510031328 | 61 | 0.0 | 0.0 | 0.00 | 0.00 | 0.00 | 89 | -0.1 | |
| 20260510030833 | 62 | 0.0 | 0.0 | 0.00 | 0.00 | 0.00 | 89 | -0.1 | |
| 20260510030337 | 62 | 0.0 | 0.0 | 0.00 | 0.00 | 0.00 | 89 | -0.1 | |
| 20260510025839 | 62 | 0.0 | 0.0 | 0.00 | 0.00 | 0.00 | 88 | -0.1 | |
| 20260510024832 | 62 | 0.0 | 0.0 | 0.00 | 0.00 | 0.00 | 88 | -0.1 | |
| 20260510024337 | 62 | 0.0 | 0.0 | 0.00 | 0.00 | 0.00 | 87 | -0.1 | |
| 20260510023843 | 63 | 0.0 | 0.0 | 0.00 | 0.00 | 0.00 | 87 | -0.1 | |
| 20260510023327 | 63 | 246 | 2.0 | 2.0 | 0.00 | 0.00 | 0.00 | 86 | -0.1 |
| 20260510022835 | 63 | 246 | 2.0 | 4.0 | 0.00 | 0.00 | 0.00 | 86 | -0.1 |
| 20260510021337 | 64 | 252 | 0.0 | 4.0 | 0.00 | 0.00 | 0.00 | 85 | -0.1 |
| 20260510020330 | 64 | 238 | 3.0 | 6.0 | 0.00 | 0.00 | 0.00 | 84 | -0.1 |
| 20260510015837 | 65 | 246 | 3.0 | 6.0 | 0.00 | 0.00 | 0.00 | 83 | -0.1 |
| 20260510015344 | 65 | 250 | 4.0 | 7.0 | 0.00 | 0.00 | 0.00 | 83 | -0.1 |
| 20260510013836 | 66 | 250 | 2.0 | 5.0 | 0.00 | 0.00 | 0.00 | 82 | -0.1 |
| 20260510012830 | 67 | 255 | 3.0 | 5.0 | 0.00 | 0.00 | 0.00 | 80 | -0.1 |
| 20260510011841 | 68 | 244 | 3.0 | 9.0 | 0.00 | 0.00 | 0.00 | 78 | -0.1 |
| 20260510005838 | 69 | 248 | 3.0 | 9.0 | 0.00 | 0.00 | 0.00 | 77 | -0.1 |
| 20260510004825 | 70 | 255 | 6.0 | 10.0 | 0.00 | 0.00 | 0.00 | 76 | -0.1 |
| 20260510003844 | 70 | 226 | 3.0 | 9.0 | 0.00 | 0.00 | 0.00 | 75 | -0.1 |
| 20260510002334 | 71 | 296 | 4.0 | 12.0 | 0.00 | 0.00 | 0.00 | 73 | -0.1 |
| 20260510001832 | 72 | 252 | 6.0 | 12.0 | 0.00 | 0.00 | 0.00 | 73 | -0.1 |
| 20260510001342 | 72 | 269 | 4.0 | 9.0 | 0.00 | 0.00 | 0.00 | 73 | -0.1 |
| 20260510000341 | 72 | 236 | 6.0 | 10.0 | 0.00 | 0.00 | 0.00 | 73 | -0.1 |
| 20260509234830 | 72 | 254 | 4.0 | 8.0 | 0.00 | 0.00 | 0.00 | 73 | -0.1 |
| 20260509234340 | 72 | 288 | 3.0 | 9.0 | 0.00 | 0.00 | 0.00 | 74 | -0.1 |
| 20260509233825 | 72 | 286 | 5.0 | 10.0 | 0.00 | 0.00 | 0.00 | 73 | -0.1 |
| 20260509232326 | 72 | 267 | 4.0 | 9.0 | 0.00 | 0.00 | 0.00 | 72 | -0.1 |
| 20260509231843 | 72 | 294 | 5.0 | 9.0 | 0.00 | 0.00 | 0.00 | 73 | -0.1 |
| 20260509230840 | 73 | 190 | 1.0 | 9.0 | 0.00 | 0.00 | 0.00 | 72 | -0.1 |
| 20260509223335 | 72 | 292 | 6.0 | 11.0 | 0.00 | 0.00 | 0.00 | 72 | -0.1 |
| 20260509222842 | 73 | 288 | 4.0 | 11.0 | 0.00 | 0.00 | 0.00 | 72 | -0.1 |
| 20260509220339 | 72 | 240 | 4.0 | 10.0 | 0.00 | 0.00 | 0.00 | 74 | -0.1 |
| 20260509215825 | 72 | 225 | 4.0 | 11.0 | 0.00 | 0.00 | 0.00 | 74 | -0.1 |
| 20260509214831 | 72 | 265 | 8.0 | 12.0 | 0.00 | 0.00 | 0.00 | 75 | -0.1 |
| 20260509213828 | 71 | 259 | 3.0 | 7.0 | 0.00 | 0.00 | 0.00 | 76 | -0.1 |
| 20260509213336 | 70 | 254 | 2.0 | 10.0 | 0.00 | 0.00 | 0.00 | 78 | -0.1 |
| 20260509212842 | 70 | 248 | 8.0 | 10.0 | 0.00 | 0.00 | 0.00 | 78 | -0.1 |
| 20260509212330 | 69 | 289 | 5.0 | 12.0 | 0.00 | 0.00 | 0.00 | 79 | -0.1 |
| 20260509211829 | 69 | 286 | 5.0 | 12.0 | 0.00 | 0.00 | 0.00 | 77 | -0.1 |
| 20260509210829 | 70 | 247 | 4.0 | 12.0 | 0.00 | 0.00 | 0.00 | 78 | -0.1 |
| 20260509210336 | 70 | 244 | 7.0 | 12.0 | 0.00 | 0.00 | 0.00 | 77 | -0.1 |
| 20260509205330 | 71 | 248 | 6.0 | 11.0 | 0.00 | 0.00 | 0.00 | 74 | -0.1 |
| 20260509203337 | 70 | 293 | 7.0 | 12.0 | 0.00 | 0.00 | 0.00 | 76 | -0.1 |
| 20260509202331 | 70 | 247 | 6.0 | 12.0 | 0.00 | 0.00 | 0.00 | 76 | -0.1 |
| 20260509201338 | 70 | 234 | 4.0 | 12.0 | 0.00 | 0.00 | 0.00 | 77 | -0.1 |
| 20260509200825 | 70 | 210 | 5.0 | 13.0 | 0.00 | 0.00 | 0.00 | 76 | -0.1 |
| 20260509200332 | 70 | 260 | 8.0 | 13.0 | 0.00 | 0.00 | 0.00 | 77 | -0.1 |
| 20260509194826 | 70 | 279 | 4.0 | 11.0 | 0.00 | 0.00 | 0.00 | 77 | -0.1 |
| 20260509193841 | 70 | 247 | 6.0 | 12.0 | 0.00 | 0.00 | 0.00 | 77 | -0.1 |
| 20260509192343 | 71 | 240 | 4.0 | 11.0 | 0.00 | 0.00 | 0.00 | 77 | -0.1 |
| 20260509190841 | 70 | 288 | 5.0 | 11.0 | 0.00 | 0.00 | 0.00 | 77 | -0.1 |
| 20260509190327 | 71 | 259 | 4.0 | 12.0 | 0.00 | 0.00 | 0.00 | 78 | -0.1 |
| 20260509184327 | 70 | 248 | 3.0 | 10.0 | 0.00 | 0.00 | 0.00 | 78 | -0.1 |
| 20260509182343 | 70 | 229 | 5.0 | 11.0 | 0.00 | 0.00 | 0.00 | 79 | -0.1 |
| 20260509181826 | 70 | 272 | 7.0 | 11.0 | 0.00 | 0.00 | 0.00 | 78 | -0.1 |
| 20260509181333 | 70 | 297 | 2.0 | 7.0 | 0.00 | 0.00 | 0.00 | 80 | -0.1 |
| 20260509180839 | 70 | 257 | 4.0 | 7.0 | 0.00 | 0.00 | 0.00 | 80 | -0.1 |
| 20260509174841 | 68 | 244 | 4.0 | 7.0 | 0.00 | 0.00 | 0.00 | 82 | -0.1 |
| 20260509172833 | 67 | 303 | 4.0 | 8.0 | 0.00 | 0.00 | 0.00 | 83 | -0.1 |
| 20260509162334 | 64 | 267 | 1.0 | 3.0 | 0.00 | 0.00 | 0.00 | 90 | -0.1 |
| 20260509160829 | 63 | 163 | 0.0 | 1.0 | 0.00 | 0.00 | 0.00 | 91 | -0.1 |
| 20260509155830 | 63 | 0.0 | 0.0 | 0.00 | 0.00 | 0.00 | 91 | -0.1 | |
| 20260509155335 | 63 | 0.0 | 0.0 | 0.00 | 0.00 | 0.00 | 91 | -0.1 | |
| 20260509153827 | 62 | 0.0 | 0.0 | 0.00 | 0.00 | 0.00 | 92 | -0.1 | |
| 20260509153334 | 62 | 0.0 | 0.0 | 0.00 | 0.00 | 0.00 | 92 | -0.1 | |
| 20260509152330 | 62 | 0.0 | 0.0 | 0.00 | 0.00 | 0.00 | 93 | -0.1 | |
| 20260509151337 | 62 | 0.0 | 0.0 | 0.00 | 0.00 | 0.00 | 93 | -0.1 | |
| 20260509145825 | 61 | 0.0 | 0.0 | 0.00 | 0.00 | 0.00 | 93 | -0.1 | |
| 20260509144324 | 61 | 0.0 | 0.0 | 0.00 | 0.00 | 0.00 | 94 | -0.1 | |
| 20260509143831 | 61 | 0.0 | 0.0 | 0.00 | 0.00 | 0.00 | 94 | -0.1 | |
| 20260509143339 | 61 | 0.0 | 0.0 | 0.00 | 0.00 | 0.00 | 94 | -0.1 | |
| 20260509142338 | 61 | 0.0 | 0.0 | 0.00 | 0.00 | 0.00 | 94 | -0.1 | |
| 20260509141330 | 61 | 0.0 | 0.0 | 0.00 | 0.00 | 0.00 | 94 | -0.1 | |
| 20260509140839 | 61 | 0.0 | 0.0 | 0.00 | 0.00 | 0.00 | 94 | -0.1 | |
| 20260509135836 | 61 | 0.0 | 0.0 | 0.00 | 0.00 | 0.00 | 94 | -0.1 | |
| 20260509134838 | 61 | 0.0 | 0.0 | 0.00 | 0.00 | 0.00 | 94 | -0.1 | |
| 20260509133840 | 61 | 0.0 | 0.0 | 0.00 | 0.00 | 0.00 | 94 | -0.1 | |
| 20260509132835 | 61 | 0.0 | 0.0 | 0.00 | 0.00 | 0.00 | 94 | -0.1 | |
| 20260509132343 | 61 | 0.0 | 0.0 | 0.00 | 0.00 | 0.00 | 94 | -0.1 | |
| 20260509131843 | 61 | 0.0 | 0.0 | 0.00 | 0.00 | 0.00 | 94 | -0.1 | |
| 20260509130326 | 61 | 0.0 | 0.0 | 0.00 | 0.00 | 0.00 | 94 | -0.1 | |
| 20260509125832 | 61 | 0.0 | 0.0 | 0.00 | 0.00 | 0.00 | 94 | -0.1 | |
| 20260509124838 | 61 | 0.0 | 0.0 | 0.00 | 0.00 | 0.00 | 94 | -0.1 | |
| 20260509124323 | 61 | 0.0 | 0.0 | 0.00 | 0.00 | 0.00 | 94 | -0.1 | |
| 20260509123325 | 61 | 0.0 | 0.0 | 0.00 | 0.00 | 0.00 | 94 | -0.1 | |
| 20260509122832 | 61 | 0.0 | 0.0 | 0.00 | 0.00 | 0.00 | 94 | -0.1 | |
| 20260509122338 | 61 | 0.0 | 0.0 | 0.00 | 0.00 | 0.00 | 94 | -0.1 | |
| 20260509121837 | 61 | 0.0 | 0.0 | 0.00 | 0.00 | 0.00 | 94 | -0.1 | |
| 20260509120341 | 61 | 0.0 | 0.0 | 0.00 | 0.00 | 0.00 | 94 | -0.1 | |
| 20260509115337 | 61 | 0.0 | 0.0 | 0.00 | 0.00 | 0.00 | 94 | -0.1 | |
| 20260509114833 | 61 | 0.0 | 0.0 | 0.00 | 0.00 | 0.00 | 94 | -0.1 | |
| 20260509113336 | 61 | 0.0 | 0.0 | 0.00 | 0.00 | 0.00 | 94 | -0.1 | |
| 20260509112827 | 61 | 0.0 | 0.0 | 0.00 | 0.00 | 0.00 | 94 | -0.1 | |
| 20260509112333 | 61 | 0.0 | 0.0 | 0.00 | 0.00 | 0.00 | 94 | -0.1 | |
| 20260509111836 | 61 | 0.0 | 0.0 | 0.00 | 0.00 | 0.00 | 94 | -0.1 | |
| 20260509111321 | 61 | 0.0 | 0.0 | 0.00 | 0.00 | 0.00 | 94 | -0.1 | |
| 20260509105826 | 61 | 0.0 | 0.0 | 0.00 | 0.00 | 0.00 | 94 | -0.1 | |
| 20260509104834 | 61 | 0.0 | 0.0 | 0.00 | 0.00 | 0.00 | 94 | -0.1 | |
| 20260509103829 | 61 | 0.0 | 0.0 | 0.00 | 0.00 | 0.00 | 93 | -0.1 | |
| 20260509103338 | 61 | 0.0 | 0.0 | 0.00 | 0.00 | 0.00 | 94 | -0.1 | |
| 20260509102826 | 61 | 0.0 | 0.0 | 0.00 | 0.00 | 0.00 | 94 | -0.1 | |
| 20260509101838 | 61 | 0.0 | 0.0 | 0.00 | 0.00 | 0.00 | 94 | -0.1 | |
| 20260509101324 | 61 | 0.0 | 0.0 | 0.00 | 0.00 | 0.00 | 93 | -0.1 | |
| 20260509100832 | 61 | 0.0 | 0.0 | 0.00 | 0.00 | 0.00 | 93 | -0.1 | |
| 20260509095336 | 61 | 0.0 | 0.0 | 0.00 | 0.00 | 0.00 | 93 | -0.1 | |
| 20260509094830 | 61 | 0.0 | 0.0 | 0.00 | 0.00 | 0.00 | 93 | -0.1 | |
| 20260509094339 | 61 | 0.0 | 0.0 | 0.00 | 0.00 | 0.00 | 93 | -0.1 | |
| 20260509093335 | 61 | 0.0 | 0.0 | 0.00 | 0.00 | 0.00 | 93 | -0.1 | |
| 20260509092842 | 61 | 0.0 | 0.0 | 0.00 | 0.00 | 0.00 | 93 | -0.1 | |
| 20260509091829 | 61 | 0.0 | 0.0 | 0.00 | 0.00 | 0.00 | 93 | -0.1 | |
| 20260509090337 | 61 | 0.0 | 0.0 | 0.00 | 0.00 | 0.00 | 93 | -0.1 | |
| 20260509084827 | 61 | 0.0 | 0.0 | 0.00 | 0.00 | 0.00 | 93 | -0.1 | |
| 20260509084334 | 61 | 0.0 | 0.0 | 0.00 | 0.00 | 0.00 | 93 | -0.1 | |
| 20260509083330 | 61 | 0.0 | 0.0 | 0.00 | 0.00 | 0.00 | 93 | -0.1 | |
| 20260509082840 | 61 | 0.0 | 0.0 | 0.00 | 0.00 | 0.00 | 93 | -0.1 | |
| 20260509081829 | 61 | 0.0 | 0.0 | 0.00 | 0.00 | 0.00 | 93 | -0.1 | |
| 20260509080825 | 61 | 0.0 | 0.0 | 0.00 | 0.00 | 0.00 | 92 | -0.1 | |
| 20260509075823 | 61 | 0.0 | 0.0 | 0.00 | 0.00 | 0.00 | 92 | -0.1 | |
| 20260509074339 | 61 | 0.0 | 0.0 | 0.00 | 0.00 | 0.00 | 92 | -0.1 | |
| 20260509073827 | 62 | 0.0 | 0.0 | 0.00 | 0.00 | 0.00 | 92 | -0.1 | |
| 20260509073336 | 62 | 0.0 | 0.0 | 0.00 | 0.00 | 0.00 | 92 | -0.1 | |
| 20260509071834 | 62 | 0.0 | 0.0 | 0.00 | 0.00 | 0.00 | 92 | -0.1 | |
| 20260509065827 | 62 | 0.0 | 0.0 | 0.00 | 0.00 | 0.00 | 92 | -0.1 | |
| 20260509064838 | 62 | 0.0 | 0.0 | 0.00 | 0.00 | 0.00 | 92 | -0.1 | |
| 20260509062340 | 62 | 0.0 | 0.0 | 0.00 | 0.00 | 0.00 | 92 | -0.1 | |
| 20260509061841 | 62 | 0.0 | 0.0 | 0.00 | 0.00 | 0.00 | 92 | -0.1 | |
| 20260509061327 | 62 | 0.0 | 0.0 | 0.00 | 0.00 | 0.00 | 92 | -0.1 | |
| 20260509060833 | 62 | 0.0 | 0.0 | 0.00 | 0.00 | 0.00 | 92 | -0.1 | |
| 20260509055335 | 62 | 0.0 | 0.0 | 0.00 | 0.00 | 0.00 | 92 | -0.1 |